Latest Weather Observations for Jervis Bay Airfield

IDN60801

Issued at 7:32 pm EST Wednesday 12 August 2020 (issued every 10 minutes, with the page automatically refreshed every 10 minutes)

About weather observations | Map of weather stations | Latest weather observations for NSW | Other Formats
Station Details ID: 068264 Name: JERVIS BAY AIRFIELD AWS Lat: -35.14 Lon: 150.70 Height: 57.18 m
Data from the previous 72 hours. | See also: Recent months at Jervis Bay Airfield
Date/Time
EST
Temp
°C
App
Temp
°C
Dew
Point
°C
Rel
Hum
%
Delta-T
°C
Wind Press
QNH
hPa
Press
MSL
hPa
Rain since
9am
mm
Dir  Spd
km/h
Gust
km/h
Spd
kts
Gust
kts
12/07:30pm 13.4 13.9 12.9 97 0.3 NNE 2 9 1 5 1011.9 1011.9 0.0
12/07:00pm 13.5 12.7 13.0 97 0.3 N 9 11 5 6 1012.2 1012.2 0.0
12/06:30pm 13.7 13.6 13.2 97 0.3 E 6 9 3 5 1011.8 1011.8 0.0
12/06:00pm 14.1 13.5 13.5 96 0.3 NE 9 11 5 6 1011.7 1011.7 0.0
12/05:30pm 14.3 15.1 13.8 97 0.3 NE 2 7 1 4 1011.6 1011.6 0.0
12/05:00pm 14.5 14.0 13.7 95 0.4 NE 9 11 5 6 1011.3 1011.3 0.0
12/04:30pm 14.8 13.4 13.5 92 0.7 NE 13 17 7 9 1011.0 1011.0 0.0
12/04:00pm 15.0 13.2 13.4 90 0.9 NE 15 19 8 10 1011.0 1011.0 0.0
12/03:30pm 15.3 13.5 13.2 87 1.2 NNE 15 20 8 11 1011.1 1011.1 0.0
12/03:00pm 15.6 14.0 12.9 84 1.5 NNE 13 20 7 11 1011.2 1011.2 0.0
12/02:30pm 15.4 13.7 12.5 83 1.6 NE 13 17 7 9 1011.3 1011.3 0.0
12/02:00pm 15.6 14.6 12.2 80 1.9 NE 9 13 5 7 1011.5 1011.5 0.0
12/01:30pm 15.8 13.8 11.4 75 2.4 NE 13 17 7 9 1011.8 1011.8 0.0
12/01:00pm 16.7 14.7 11.4 71 2.9 NE 13 19 7 10 1012.2 1012.2 0.0
12/12:30pm 15.6 13.6 11.4 76 2.3 NNE 13 19 7 10 1013.0 1013.0 0.0
12/12:00pm 14.8 12.4 10.2 74 2.4 NE 13 17 7 9 1013.5 1013.5 0.0
12/11:30am 14.0 12.4 11.5 85 1.3 ENE 11 15 6 8 1014.2 1014.2 0.0
12/11:00am 13.3 11.9 10.8 85 1.3 NE 9 13 5 7 1014.8 1014.8 0.0
12/10:30am 14.3 12.9 10.9 80 1.8 NNE 9 13 5 7 1015.0 1015.0 0.0
12/10:00am 14.1 12.9 10.3 78 2.0 N 7 9 4 5 1015.4 1015.4 0.0
12/09:30am 13.3 12.4 11.5 89 1.0 ENE 7 9 4 5 1015.5 1015.5 0.0
12/09:00am 13.0 12.0 10.9 87 1.1 NNE 7 9 4 5 1015.9 1015.9 0.0
12/08:30am 11.4 9.6 10.9 97 0.3 NE 11 15 6 8 1015.7 1015.7 0.0
12/08:00am 10.8 9.1 10.0 95 0.4 ENE 9 11 5 6 1015.7 1015.7 0.0
12/07:30am 10.9 9.3 8.8 87 1.0 NNE 7 11 4 6 1015.8 1015.8 0.0
12/07:00am 10.9 9.2 8.5 85 1.2 NNW 7 11 4 6 1015.8 1015.8 0.0
12/06:30am 10.8 8.9 8.9 88 0.9 NNW 9 13 5 7 1015.7 1015.7 0.0
12/06:00am 10.7 8.7 8.6 87 1.0 NNW 9 11 5 6 1015.6 1015.6 0.0
12/05:30am 10.3 8.4 8.9 91 0.7 NNW 9 13 5 7 1015.7 1015.7 0.0
12/05:00am 10.4 8.5 9.0 91 0.7 NNW 9 11 5 6 1015.8 1015.8 0.0
12/04:30am 10.5 8.2 8.9 90 0.8 N 11 13 6 7 1015.4 1015.4 0.0
12/04:00am 10.4 8.4 8.8 90 0.8 N 9 11 5 6 1015.6 1015.6 0.0
12/03:30am 10.7 8.9 9.3 91 0.7 NNW 9 15 5 8 1015.8 1015.8 0.0
12/03:00am 9.2 8.2 8.7 97 0.2 NNW 4 9 2 5 1016.1 1016.1 0.0
12/02:30am 9.5 9.3 9.0 97 0.2 CALM 0 6 0 3 1016.2 1016.2 0.0
12/02:00am 9.7 8.4 9.1 96 0.3 NNE 6 7 3 4 1016.6 1016.6 0.0
12/01:30am 10.7 8.7 8.8 88 0.9 N 9 13 5 7 1017.0 1017.0 0.0
12/01:00am 10.5 8.2 8.9 90 0.8 NNE 11 13 6 7 1017.2 1017.2 0.0
12/12:30am 10.3 7.9 8.6 89 0.8 NNE 11 15 6 8 1017.2 1017.2 0.0
12/12:00am 10.3 8.4 9.1 92 0.6 N 9 11 5 6 1017.4 1017.4 0.0
 
Date/Time
EST
Temp
°C
App
Temp
°C
Dew
Point
°C
Rel
Hum
%
Delta-T
°C
Wind Press
QNH
hPa
Press
MSL
hPa
Rain since
9am
mm
Dir  Spd
km/h
Gust
km/h
Spd
kts
Gust
kts
11/11:30pm 10.3 8.1 9.5 95 0.4 NNE 11 13 6 7 1017.2 1017.2 0.0
11/11:00pm 10.2 8.1 9.7 97 0.3 NNE 11 13 6 7 1017.2 1017.2 0.0
11/10:30pm 10.2 8.1 9.7 97 0.3 NNE 11 13 6 7 1017.5 1017.5 0.0
11/10:00pm 10.8 8.4 9.9 94 0.5 NNE 13 17 7 9 1017.6 1017.6 0.0
11/09:30pm 11.0 8.2 10.1 94 0.5 NNE 15 17 8 9 1018.3 1018.3 0.0
11/09:00pm 11.0 8.7 10.4 96 0.3 N 13 19 7 10 1018.4 1018.4 0.0
11/08:30pm 10.9 8.6 10.4 97 0.3 NNE 13 17 7 9 1018.4 1018.4 0.0
11/08:00pm 10.0 8.2 9.5 97 0.2 NE 9 11 5 6 1018.3 1018.3 0.0
11/07:30pm 9.6 7.3 9.1 97 0.2 ENE 11 13 6 7 1018.2 1018.2 0.0
11/07:00pm 9.7 7.8 8.9 95 0.4 ENE 9 11 5 6 1018.2 1018.2 0.0
11/06:30pm 10.9 8.3 9.3 90 0.8 NE 13 15 7 8 1017.9 1017.9 0.0
11/06:00pm 11.5 8.8 9.1 85 1.2 NNE 13 13 7 7 1017.8 1017.8 0.0
11/05:30pm 12.1 9.4 8.8 80 1.6 NE 13 15 7 8 1017.3 1017.3 0.0
11/05:00pm 13.0 10.3 8.9 76 2.1 NE 13 17 7 9 1017.2 1017.2 0.0
11/04:30pm 14.1 11.4 8.9 71 2.6 NE 13 19 7 10 1017.2 1017.2 0.0
11/04:00pm 14.3 11.9 8.7 69 2.8 NNE 11 17 6 9 1017.6 1017.6 0.0
11/03:30pm 14.6 11.8 8.5 67 3.1 NNE 13 17 7 9 1017.6 1017.6 0.0
11/03:00pm 14.7 11.3 7.7 63 3.5 NNE 15 20 8 11 1017.7 1017.7 0.0
11/02:30pm 14.8 11.5 8.1 64 3.4 NNE 15 20 8 11 1017.8 1017.8 0.0
11/02:00pm 14.9 11.5 7.5 61 3.7 NNE 15 20 8 11 1018.1 1018.1 0.0
11/01:30pm 15.8 12.1 8.1 60 3.9 NE 17 24 9 13 1018.2 1018.2 0.0
11/01:00pm 15.6 12.3 7.9 60 3.9 NNE 15 19 8 10 1018.5 1018.5 0.0
11/12:30pm 15.2 12.5 7.5 60 3.8 NNE 11 17 6 9 1019.2 1019.1 0.0
11/12:00pm 14.9 12.1 8.6 66 3.2 N 13 20 7 11 1019.9 1019.9 0.0
11/11:30am 14.6 11.9 7.4 62 3.6 N 11 17 6 9 1020.5 1020.5 0.0
11/11:00am 14.4 12.9 9.2 71 2.7 N 7 9 4 5 1020.9 1020.9 0.0
11/10:30am 13.7 12.4 10.1 79 1.9 NNW 7 9 4 5 1021.1 1021.1 0.0
11/10:00am 13.1 13.2 10.1 82 1.5 CALM 0 4 0 2 1021.1 1021.1 0.0
11/09:30am 12.1 10.4 9.8 86 1.2 NW 9 11 5 6 1021.1 1021.1 0.0
11/09:00am 11.8 10.4 9.5 86 1.2 NW 7 9 4 5 1021.2 1021.2 1.6
11/08:30am 11.3 10.1 9.7 90 0.8 WNW 6 9 3 5 1021.1 1021.1 1.6
11/08:00am 10.7 9.3 9.5 92 0.6 NW 7 11 4 6 1021.2 1021.2 1.6
11/07:30am 10.1 8.6 9.3 95 0.4 WNW 7 11 4 6 1021.4 1021.4 1.6
11/07:00am 9.5 9.3 9.0 97 0.2 CALM 0 6 0 3 1021.2 1021.2 1.6
11/06:30am 9.6 9.4 9.0 96 0.3 CALM 0 0 0 0 1021.0 1021.0 1.6
11/06:00am 9.4 7.8 8.9 97 0.2 NW 7 9 4 5 1020.7 1020.7 1.6
11/05:30am 9.6 7.2 8.8 95 0.4 W 11 13 6 7 1020.7 1020.7 1.6
11/05:00am 9.6 7.6 8.7 94 0.4 WSW 9 11 5 6 1020.8 1020.8 1.6
11/04:30am 9.6 6.7 8.2 91 0.7 WSW 13 17 7 9 1020.6 1020.6 1.6
11/04:00am 9.4 6.6 8.6 95 0.4 WSW 13 15 7 8 1020.6 1020.6 1.6
11/03:30am 9.6 8.6 8.8 95 0.4 WSW 4 7 2 4 1021.0 1021.0 1.6
11/03:00am 9.6 6.8 8.5 93 0.5 W 13 15 7 8 1020.9 1020.9 1.6
11/02:30am 10.0 7.1 8.3 89 0.8 WSW 13 15 7 8 1021.1 1021.1 1.6
11/02:00am 10.4 6.5 8.8 90 0.8 WSW 19 24 10 13 1021.3 1021.3 1.6
11/01:30am 10.6 6.9 9.4 92 0.6 WSW 19 24 10 13 1021.4 1021.4 1.6
11/01:00am 10.7 7.0 10.1 96 0.3 WSW 20 28 11 15 1021.1 1021.1 1.6
11/12:30am 11.2 8.3 9.5 89 0.9 SW 15 20 8 11 1021.1 1021.1 1.6
11/12:00am 11.6 8.9 10.2 91 0.7 SW 15 24 8 13 1021.0 1021.0 1.6
 
Date/Time
EST
Temp
°C
App
Temp
°C
Dew
Point
°C
Rel
Hum
%
Delta-T
°C
Wind Press
QNH
hPa
Press
MSL
hPa
Rain since
9am
mm
Dir  Spd
km/h
Gust
km/h
Spd
kts
Gust
kts
10/11:30pm 11.6 8.9 10.5 93 0.6 SW 15 24 8 13 1021.1 1021.1 1.6
10/11:00pm 10.9 9.7 9.7 92 0.6 W 6 9 3 5 1021.3 1021.3 1.6
10/10:30pm 11.6 7.9 9.3 86 1.2 SW 19 28 10 15 1021.0 1021.0 1.4
10/10:00pm 10.9 7.3 10.0 94 0.5 WSW 19 28 10 15 1021.3 1021.3 1.4
10/09:30pm 11.0 7.7 9.4 90 0.8 SW 17 24 9 13 1021.5 1021.5 1.4
10/09:14pm 10.8 7.8 9.4 91 0.7 SW 15 20 8 11 1021.7 1021.7 1.4
10/09:00pm 11.2 8.3 9.5 89 0.9 SSW 15 24 8 13 1021.8 1021.8 1.4
10/08:58pm 11.3 8.8 9.6 89 0.9 SSW 13 19 7 10 1021.8 1021.8 1.4
10/08:30pm 12.0 9.2 9.9 87 1.1 S 15 20 8 11 1021.7 1021.7 0.8
10/08:00pm 11.8 8.2 10.0 89 0.9 S 19 22 10 12 1021.5 1021.5 0.8
10/07:30pm 11.6 8.2 11.1 97 0.3 SSE 20 28 11 15 1021.4 1021.4 0.8
10/07:00pm 12.5 7.7 8.8 78 1.8 S 24 37 13 20 1021.1 1021.1 0.6
10/06:30pm 12.5 9.1 9.0 79 1.8 S 17 28 9 15 1021.0 1021.0 0.6
10/06:00pm 12.8 8.3 8.5 75 2.1 S 22 30 12 16 1020.7 1020.7 0.6
10/05:30pm 13.0 6.9 8.3 73 2.3 S 30 39 16 21 1020.4 1020.4 0.6
10/05:00pm 12.2 8.0 9.6 84 1.3 SW 22 35 12 19 1020.2 1020.2 0.6
10/04:30pm 12.2 7.3 10.1 87 1.1 SW 26 43 14 23 1020.0 1020.0 0.6
10/04:00pm 12.6 6.4 9.4 81 1.6 SSW 32 52 17 28 1019.8 1019.8 0.6
10/03:41pm 12.8 7.0 9.4 80 1.7 SSW 30 48 16 26 1019.6 1019.6 0.6
10/03:30pm 12.8 6.6 9.3 79 1.8 SSW 32 46 17 25 1019.5 1019.5 0.6
10/03:00pm 12.5 7.0 10.7 89 0.9 SSW 30 43 16 23 1019.4 1019.4 0.6
10/02:51pm 12.6 7.0 10.3 86 1.2 SSW 30 44 16 24 1019.3 1019.3 0.4
10/02:34pm 12.3 7.2 10.7 90 0.8 SSW 28 46 15 25 1019.4 1019.4 0.4
10/02:33pm 12.3 7.2 10.7 90 0.8 SSW 28 43 15 23 1019.3 1019.3 0.4
10/02:30pm 12.6 7.3 11.2 91 0.7 SSW 30 43 16 23 1019.4 1019.4 0.2
10/02:19pm 12.8 7.0 10.9 88 1.0 SSW 32 50 17 27 1019.4 1019.4 0.2
10/02:00pm 13.5 7.6 10.3 81 1.7 S 32 46 17 25 1019.5 1019.5 0.2
10/01:30pm 13.4 7.2 10.2 81 1.7 S 33 46 18 25 1019.6 1019.6 0.2
10/01:20pm 13.4 8.1 11.1 86 1.2 S 30 46 16 25 1019.4 1019.4 0.2
10/01:04pm 11.7 5.0 10.9 95 0.4 S 37 56 20 30 1019.5 1019.5 0.2
10/01:00pm 11.7 5.3 10.8 94 0.5 S 35 56 19 30 1019.6 1019.6 0.2
10/12:58pm 12.0 6.0 10.9 93 0.6 S 33 56 18 30 1019.6 1019.6 0.2
10/12:30pm 13.9 7.6 9.7 76 2.2 S 33 57 18 31 1019.3 1019.3 0.0
10/12:18pm 13.9 7.2 9.7 76 2.2 S 35 56 19 30 1019.4 1019.4 0.0
10/12:00pm 12.9 8.3 11.1 89 0.9 SW 26 43 14 23 1019.6 1019.6 0.0
10/11:30am 13.4 8.7 10.6 83 1.5 SSW 26 39 14 21 1019.7 1019.7 0.0
10/11:21am 13.2 8.0 10.4 83 1.5 S 28 46 15 25 1019.7 1019.7 0.0
10/11:00am 14.2 7.7 10.4 78 2.0 S 35 50 19 27 1019.8 1019.8 0.0
10/10:33am 14.2 7.9 8.8 70 2.7 S 32 54 17 29 1019.4 1019.4 0.0
10/10:30am 14.5 8.9 8.7 68 2.9 S 28 46 15 25 1019.4 1019.4 0.0
10/10:04am 13.1 7.2 10.3 83 1.5 SSW 32 50 17 27 1019.6 1019.6 0.0
10/10:00am 13.4 6.9 10.4 82 1.6 SSW 35 50 19 27 1019.5 1019.5 0.0
10/09:30am 14.2 7.4 9.2 72 2.6 S 35 61 19 33 1018.8 1018.8 0.0
10/09:00am 13.7 6.1 7.7 67 3.0 SSE 37 59 20 32 1018.5 1018.5 30.4
10/08:51am 14.0 6.5 8.0 67 3.0 S 37 59 20 32 1018.4 1018.4 30.4
10/08:30am 14.2 7.6 8.4 68 2.9 SSE 33 43 18 23 1018.1 1018.1 30.4
10/08:11am 13.5 6.8 7.5 67 2.9 S 32 50 17 27 1017.9 1017.9 30.4
10/08:00am 13.8 6.9 7.3 65 3.2 S 33 46 18 25 1017.8 1017.8 30.4
10/07:30am 13.3 6.0 8.8 74 2.3 S 37 56 20 30 1017.3 1017.3 30.4
10/07:21am 13.3 6.8 9.0 75 2.2 SSE 33 56 18 30 1017.1 1017.1 30.4
10/07:00am 13.0 6.2 9.3 78 1.9 SSE 35 52 19 28 1016.9 1016.9 30.2
10/06:30am 12.7 6.3 10.8 88 1.0 S 35 50 19 27 1016.5 1016.5 30.2
10/06:10am 12.4 6.0 10.6 89 0.9 SSE 35 59 19 32 1016.2 1016.2 29.8
10/06:09am 12.9 6.9 10.8 87 1.1 SSE 33 56 18 30 1016.3 1016.3 29.4
10/06:00am 13.4 7.2 10.0 80 1.8 SSE 33 46 18 25 1016.1 1016.1 28.8
10/05:30am 13.4 5.6 8.3 71 2.5 SSE 39 57 21 31 1015.6 1015.6 28.8
10/05:00am 13.4 4.5 9.3 76 2.1 S 46 72 25 39 1015.0 1015.0 28.8
10/04:30am 13.3 4.5 9.4 77 2.0 SSE 46 69 25 37 1014.7 1014.7 28.8
10/04:24am 13.4 5.1 10.0 80 1.8 SSE 44 67 24 36 1014.7 1014.7 28.8
10/04:11am 12.4 4.3 10.8 90 0.8 S 44 63 24 34 1014.6 1014.6 28.8
10/04:00am 13.4 5.1 10.0 80 1.8 S 44 67 24 36 1014.4 1014.4 28.6
10/03:41am 13.2 5.0 10.4 83 1.5 SSE 44 69 24 37 1014.2 1014.2 28.6
10/03:40am 13.0 4.9 10.7 86 1.2 SSE 44 61 24 33 1014.3 1014.3 28.6
10/03:30am 12.9 5.0 11.3 90 0.8 SSE 44 61 24 33 1014.2 1014.2 28.6
10/03:14am 12.4 5.4 11.3 93 0.6 SSE 39 57 21 31 1014.2 1014.2 27.8
10/03:11am 12.3 4.9 11.2 93 0.6 SSE 41 57 22 31 1014.3 1014.3 27.8
10/03:00am 13.7 5.6 10.7 82 1.6 SSE 44 65 24 35 1014.0 1014.0 27.4
10/02:31am 13.8 6.9 10.2 79 1.9 SSE 37 56 20 30 1013.9 1013.9 27.4
10/02:30am 13.9 7.0 10.3 79 1.9 SSE 37 54 20 29 1013.9 1013.9 27.4
10/02:00am 13.2 4.7 10.7 85 1.3 SSE 46 65 25 35 1013.9 1013.9 27.4
10/01:52am 13.3 5.2 10.8 85 1.3 SSE 44 65 24 35 1014.1 1014.1 27.4
10/01:34am 13.7 5.7 11.0 84 1.4 SSE 44 59 24 32 1013.8 1013.8 27.4
10/01:30am 13.6 5.7 11.3 86 1.2 SSE 44 59 24 32 1013.8 1013.8 27.4
10/01:17am 12.8 6.0 12.0 95 0.4 SSE 39 61 21 33 1014.0 1014.0 27.4
10/01:11am 12.7 6.7 12.2 97 0.3 SSE 35 50 19 27 1014.0 1014.0 27.0
10/01:08am 12.8 6.5 12.2 96 0.3 SE 37 50 20 27 1014.0 1014.0 26.6
10/01:00am 12.5 5.7 12.0 97 0.3 SSE 39 54 21 29 1013.9 1013.9 26.6
10/12:58am 12.5 5.3 12.0 97 0.3 SSE 41 59 22 32 1013.9 1013.9 26.6
10/12:51am 12.4 4.8 11.8 96 0.3 SE 43 59 23 32 1013.9 1013.9 26.6
10/12:30am 13.2 5.6 11.8 91 0.7 SSE 43 61 23 33 1013.7 1013.7 26.2
10/12:28am 13.1 5.9 11.8 92 0.7 SSE 41 61 22 33 1013.7 1013.7 26.2
10/12:16am 12.6 4.8 11.2 91 0.7 SSE 43 57 23 31 1013.6 1013.6 26.2
10/12:03am 12.7 6.7 12.2 97 0.3 SE 35 54 19 29 1013.7 1013.7 26.2
10/12:00am 12.5 5.7 12.0 97 0.3 SE 39 54 21 29 1013.6 1013.6 26.2
 
Date/Time
EST
Temp
°C
App
Temp
°C
Dew
Point
°C
Rel
Hum
%
Delta-T
°C
Wind Press
QNH
hPa
Press
MSL
hPa
Rain since
9am
mm
Dir  Spd
km/h
Gust
km/h
Spd
kts
Gust
kts
09/11:55pm 12.7 6.7 12.2 97 0.3 SE 35 54 19 29 1013.8 1013.8 25.8
09/11:53pm 12.9 6.9 12.1 95 0.4 SE 35 54 19 29 1013.7 1013.7 25.4
09/11:30pm 12.9 6.6 12.4 97 0.3 SSE 37 46 20 25 1013.4 1013.4 25.2
09/11:20pm 12.7 6.4 12.2 97 0.3 SE 37 56 20 30 1013.6 1013.6 25.2
09/11:10pm 12.7 6.0 12.2 97 0.3 SE 39 56 21 30 1013.6 1013.6 24.8
09/11:03pm 12.3 4.7 11.8 97 0.3 SE 43 61 23 33 1013.5 1013.5 24.8
09/11:00pm 12.5 4.4 12.0 97 0.3 SE 46 61 25 33 1013.5 1013.5 24.6
09/10:42pm 12.8 5.4 12.5 98 0.2 SE 43 65 23 35 1013.3 1013.3 23.6
09/10:30pm 12.8 5.4 12.3 97 0.3 SE 43 59 23 32 1013.2 1013.2 23.2
09/10:23pm 13.2 6.3 12.7 97 0.3 SSE 41 59 22 32 1013.0 1013.0 22.6
09/10:19pm 13.2 5.9 12.7 97 0.3 SSE 43 61 23 33 1013.0 1013.0 22.4
09/10:08pm 13.2 5.7 12.7 97 0.3 SSE 44 63 24 34 1012.8 1012.8 22.0
09/10:00pm 13.0 5.4 12.5 97 0.3 SSE 44 59 24 32 1012.8 1012.8 22.0
09/09:59pm 12.9 5.5 12.4 97 0.3 SSE 43 59 23 32 1012.9 1012.9 21.8
09/09:30pm 12.8 4.3 11.9 94 0.5 SSE 48 69 26 37 1012.6 1012.6 21.0
09/09:07pm 13.2 6.3 12.7 97 0.3 SSE 41 65 22 35 1012.4 1012.4 20.6
09/09:00pm 13.1 6.9 12.6 97 0.3 SSE 37 54 20 29 1012.3 1012.3 20.4
09/08:46pm 13.3 6.7 12.7 96 0.3 SE 39 61 21 33 1012.3 1012.3 20.2
09/08:30pm 13.1 7.3 12.6 97 0.3 SE 35 61 19 33 1012.2 1012.2 20.0
09/08:28pm 13.1 6.9 12.6 97 0.3 SE 37 57 20 31 1012.2 1012.2 19.8
09/08:00pm 13.2 4.4 12.1 93 0.6 SSE 50 70 27 38 1011.8 1011.8 19.6

Other formats

Comma delimited format used in spreadsheet applications
http://www.bom.gov.au/fwo/IDN60801/IDN60801.94751.axf

JavaScript Object Notation format (JSON) in row-major order
http://www.bom.gov.au/fwo/IDN60801/IDN60801.94751.json

Data quality

Most of these data are generated automatically and are frequently updated. Quality checks on data are not normally performed. It is possible for incorrect values to appear. Refer to information at About Latest Weather Observations and please check the disclaimer before using these data.